createdAt,value
2019-03-20T00:00:38.437Z,7.97
2019-03-20T00:03:13.303Z,8.00
2019-03-20T00:05:48.316Z,6.83
2019-03-20T00:08:23.203Z,9.13
2019-03-20T00:10:58.203Z,5.60
2019-03-20T00:13:33.237Z,6.57
2019-03-20T00:16:08.253Z,6.57
2019-03-20T00:18:43.179Z,8.63
2019-03-20T00:21:18.335Z,16.13
2019-03-20T00:23:53.276Z,8.27
2019-03-20T00:26:28.292Z,7.77
2019-03-20T00:29:05.479Z,7.50
2019-03-20T00:31:40.315Z,8.13
2019-03-20T00:34:15.250Z,11.13
2019-03-20T00:36:50.216Z,7.80
2019-03-20T00:39:24.979Z,8.57
2019-03-20T00:41:59.888Z,8.90
2019-03-20T00:44:35.731Z,10.73
2019-03-20T00:47:10.651Z,7.30
2019-03-20T00:49:46.933Z,7.53
2019-03-20T00:52:21.811Z,7.60
2019-03-20T00:54:56.829Z,8.97
2019-03-20T00:57:31.816Z,8.40
2019-03-20T01:00:09.203Z,11.33
2019-03-20T01:02:44.211Z,16.73
2019-03-20T01:05:19.130Z,9.20
2019-03-20T01:07:54.187Z,16.30
2019-03-20T01:10:29.303Z,12.10
2019-03-20T01:13:05.856Z,16.73
2019-03-20T01:15:40.846Z,14.67
2019-03-20T01:18:15.702Z,11.57
2019-03-20T01:20:50.644Z,13.33
2019-03-20T01:23:25.519Z,14.00
2019-03-20T01:26:00.471Z,14.00
2019-03-20T01:28:35.332Z,14.53
2019-03-20T01:31:10.276Z,18.70
2019-03-20T01:33:45.080Z,17.20
2019-03-20T01:36:20.099Z,19.60
2019-03-20T01:38:54.885Z,18.60
2019-03-20T01:41:38.063Z,11.40
2019-03-20T01:44:07.312Z,19.50
2019-03-20T01:46:42.254Z,16.00
2019-03-20T01:49:17.066Z,19.77
2019-03-20T01:51:52.011Z,16.90
2019-03-20T01:54:26.912Z,16.97
2019-03-20T01:57:01.794Z,17.60
2019-03-20T01:59:36.666Z,24.60
2019-03-20T02:02:11.741Z,18.43
2019-03-20T02:04:46.825Z,18.00
2019-03-20T02:07:21.810Z,15.77
2019-03-20T02:09:56.762Z,18.60
2019-03-20T02:12:32.812Z,18.13
2019-03-20T02:15:11.652Z,18.27
2019-03-20T02:17:46.597Z,16.43
2019-03-20T02:20:21.730Z,19.97
2019-03-20T02:22:56.532Z,17.83
2019-03-20T02:25:32.518Z,20.80
2019-03-20T02:28:07.576Z,20.07
2019-03-20T02:30:42.541Z,21.07
2019-03-20T02:33:17.350Z,20.23
2019-03-20T02:35:52.534Z,19.63
2019-03-20T02:38:27.485Z,23.47
2019-03-20T02:41:03.206Z,20.87
2019-03-20T02:43:38.253Z,23.17
2019-03-20T02:46:13.132Z,26.47
2019-03-20T02:48:48.093Z,22.13
2019-03-20T02:51:23.062Z,20.97
2019-03-20T02:53:57.944Z,23.07
2019-03-20T02:56:32.896Z,24.67
2019-03-20T02:59:07.806Z,25.00
2019-03-20T03:01:43.613Z,30.50
2019-03-20T03:04:18.540Z,23.83
2019-03-20T03:06:53.532Z,31.73
2019-03-20T03:09:28.457Z,24.43
2019-03-20T03:12:03.416Z,25.53
2019-03-20T03:14:38.373Z,25.20
2019-03-20T03:17:13.339Z,28.80
2019-03-20T03:19:48.227Z,28.47
2019-03-20T03:22:24.055Z,29.40
2019-03-20T03:24:58.944Z,30.07
2019-03-20T03:27:34.804Z,29.33
2019-03-20T03:30:10.630Z,27.20
2019-03-20T03:32:45.581Z,26.07
2019-03-20T03:35:20.569Z,33.83
2019-03-20T03:37:55.372Z,26.27
2019-03-20T03:40:30.404Z,23.23
2019-03-20T03:43:05.201Z,30.10
2019-03-20T03:45:39.952Z,37.07
2019-03-20T03:48:14.754Z,22.33
2019-03-20T03:50:49.627Z,29.63
2019-03-20T03:53:24.742Z,28.43
2019-03-20T03:55:59.579Z,30.13
2019-03-20T03:58:34.588Z,31.03
2019-03-20T04:01:09.454Z,27.20
2019-03-20T04:03:44.361Z,32.50
2019-03-20T04:06:19.243Z,29.20
2019-03-20T04:08:54.168Z,29.30
2019-03-20T04:11:29.058Z,32.30
2019-03-20T04:14:06.514Z,28.97
2019-03-20T04:16:43.865Z,30.43
2019-03-20T04:19:19.347Z,28.00
2019-03-20T04:21:54.835Z,37.17
2019-03-20T04:24:30.230Z,29.03
2019-03-20T04:27:09.130Z,27.97
2019-03-20T04:29:44.158Z,28.83
2019-03-20T04:32:19.243Z,32.80
2019-03-20T04:34:54.656Z,31.60
2019-03-20T04:37:29.542Z,32.70
2019-03-20T04:40:05.003Z,28.63
2019-03-20T04:42:39.899Z,29.80
2019-03-20T04:45:15.887Z,32.17
2019-03-20T04:47:50.898Z,29.60
2019-03-20T04:50:25.798Z,30.70
2019-03-20T04:53:00.704Z,26.90
2019-03-20T04:55:35.646Z,32.93
2019-03-20T04:58:10.530Z,27.67
2019-03-20T05:00:45.331Z,33.40
2019-03-20T05:03:20.306Z,28.07
2019-03-20T05:05:56.176Z,32.50
2019-03-20T05:08:31.156Z,32.10
2019-03-20T05:11:06.079Z,36.33
2019-03-20T05:13:41.077Z,33.17
2019-03-20T05:16:15.996Z,32.40
2019-03-20T05:18:51.006Z,32.67
2019-03-20T05:21:26.466Z,31.50
2019-03-20T05:24:01.409Z,34.87
2019-03-20T05:26:36.180Z,35.83
2019-03-20T05:29:11.107Z,32.60
2019-03-20T05:31:47.070Z,36.80
2019-03-20T05:34:22.075Z,33.50
2019-03-20T05:36:57.074Z,38.13
2019-03-20T05:39:32.174Z,35.30
2019-03-20T05:42:07.167Z,34.03
2019-03-20T05:44:42.378Z,31.13
2019-03-20T05:47:17.268Z,37.93
2019-03-20T05:49:52.299Z,38.60
2019-03-20T05:52:27.531Z,38.00
2019-03-20T05:55:02.459Z,37.77
2019-03-20T05:57:37.346Z,30.90
2019-03-20T06:00:14.696Z,35.27
2019-03-20T06:02:49.666Z,31.60
2019-03-20T06:05:24.604Z,33.70
2019-03-20T06:07:59.528Z,31.97
2019-03-20T06:10:34.558Z,30.80
2019-03-20T06:13:09.465Z,36.20
2019-03-20T06:15:44.382Z,35.37
2019-03-20T06:18:19.257Z,37.03
2019-03-20T06:20:54.312Z,35.17
2019-03-20T06:23:30.108Z,28.13
2019-03-20T06:26:04.937Z,31.13
2019-03-20T06:28:39.926Z,27.73
2019-03-20T06:31:14.935Z,28.00
2019-03-20T06:33:49.820Z,37.43
2019-03-20T06:36:24.653Z,28.73
2019-03-20T06:38:59.573Z,27.90
2019-03-20T06:41:34.607Z,35.40
2019-03-20T06:44:09.581Z,33.50
2019-03-20T06:46:44.538Z,30.83
2019-03-20T06:49:19.442Z,27.87
2019-03-20T06:51:54.362Z,30.73
2019-03-20T06:54:29.446Z,32.60
2019-03-20T06:57:04.891Z,32.90
2019-03-20T07:00:34.694Z,31.90
2019-03-20T07:03:14.237Z,29.90
2019-03-20T07:06:33.386Z,31.07
2019-03-20T07:09:30.695Z,32.80
2019-03-20T07:12:05.545Z,27.73
2019-03-20T07:14:40.471Z,32.63
2019-03-20T07:17:15.832Z,30.13
2019-03-20T07:19:50.788Z,30.20
2019-03-20T07:22:25.811Z,37.17
2019-03-20T07:25:00.698Z,28.00
2019-03-20T07:27:35.744Z,31.53
2019-03-20T07:30:12.056Z,34.40
2019-03-20T07:32:46.971Z,30.90
2019-03-20T07:35:21.867Z,26.00
2019-03-20T07:37:56.820Z,28.57
2019-03-20T07:40:31.997Z,33.13
2019-03-20T07:43:08.971Z,33.53
2019-03-20T07:45:44.403Z,29.43
2019-03-20T07:48:22.426Z,32.53
2019-03-20T07:50:56.916Z,29.63
2019-03-20T07:53:32.967Z,40.17
2019-03-20T07:56:07.905Z,29.17
2019-03-20T07:58:42.850Z,34.73
2019-03-20T08:01:20.110Z,28.57
2019-03-20T08:03:54.338Z,35.97
2019-03-20T08:06:29.245Z,31.33
2019-03-20T08:09:05.707Z,27.20
2019-03-20T08:11:41.520Z,33.97
2019-03-20T08:14:17.110Z,31.87
2019-03-20T08:16:52.082Z,29.97
2019-03-20T08:19:29.475Z,30.17
2019-03-20T08:22:04.675Z,28.50
2019-03-20T08:24:40.591Z,29.60
2019-03-20T08:27:15.578Z,32.70
2019-03-20T08:29:50.568Z,30.30
2019-03-20T08:32:25.641Z,30.80
2019-03-20T08:35:00.564Z,25.50
2019-03-20T08:37:35.622Z,30.03
2019-03-20T08:40:11.680Z,28.77
2019-03-20T08:42:46.726Z,27.70
2019-03-20T08:45:21.795Z,27.60
2019-03-20T08:47:56.771Z,33.60
2019-03-20T08:50:31.910Z,29.73
2019-03-20T08:53:07.146Z,30.07
2019-03-20T08:55:42.049Z,20.10
2019-03-20T08:58:17.186Z,26.90
2019-03-20T09:00:52.213Z,27.33
2019-03-20T09:03:27.657Z,33.80
2019-03-20T09:06:03.241Z,32.43
2019-03-20T09:08:38.277Z,37.20
2019-03-20T09:11:13.171Z,28.63
2019-03-20T09:13:48.075Z,30.30
2019-03-20T09:16:22.969Z,27.23
2019-03-20T09:18:58.019Z,33.80
2019-03-20T09:21:33.259Z,32.80
2019-03-20T09:24:09.179Z,26.83
2019-03-20T09:26:44.097Z,27.33
2019-03-20T09:29:19.099Z,30.70
2019-03-20T09:31:55.866Z,25.93
2019-03-20T09:34:31.327Z,33.77
2019-03-20T09:37:08.201Z,29.43
2019-03-20T09:39:44.143Z,25.47
2019-03-20T09:42:19.933Z,37.00
2019-03-20T09:44:54.713Z,31.03
2019-03-20T09:47:29.753Z,29.13
2019-03-20T09:50:04.968Z,31.47
2019-03-20T09:52:39.880Z,26.50
2019-03-20T09:55:15.128Z,28.93
2019-03-20T09:57:50.080Z,29.20
2019-03-20T10:00:25.364Z,28.10
2019-03-20T10:03:00.220Z,27.80
2019-03-20T10:05:36.065Z,30.13
2019-03-20T10:08:11.016Z,25.33
2019-03-20T10:10:45.996Z,27.27
2019-03-20T10:13:20.965Z,31.30
2019-03-20T10:15:56.533Z,27.60
2019-03-20T10:18:31.545Z,26.97
2019-03-20T10:21:06.384Z,28.80
2019-03-20T10:23:42.453Z,30.50
2019-03-20T10:26:17.253Z,29.93
2019-03-20T10:28:52.203Z,27.27
2019-03-20T10:31:27.153Z,29.53
2019-03-20T10:34:02.305Z,27.77
2019-03-20T10:36:37.206Z,27.40
2019-03-20T10:39:12.272Z,27.10
2019-03-20T10:41:47.277Z,28.20
2019-03-20T10:44:22.251Z,30.00
2019-03-20T10:46:57.182Z,33.63
2019-03-20T10:49:32.235Z,30.47
2019-03-20T10:52:07.311Z,30.40
2019-03-20T10:54:42.325Z,27.70
2019-03-20T10:57:17.308Z,34.20
2019-03-20T10:59:52.327Z,29.27
2019-03-20T11:02:27.259Z,30.87
2019-03-20T11:05:02.183Z,29.17
2019-03-20T11:07:37.262Z,26.53
2019-03-20T11:10:18.687Z,28.37
2019-03-20T11:12:54.999Z,30.73
2019-03-20T11:15:29.960Z,30.33
2019-03-20T11:18:04.880Z,26.67
2019-03-20T11:20:39.835Z,28.03
2019-03-20T11:23:15.562Z,27.90
2019-03-20T11:25:52.747Z,28.77
2019-03-20T11:28:27.783Z,34.70
2019-03-20T11:31:02.690Z,36.43
2019-03-20T11:33:37.685Z,27.07
2019-03-20T11:36:12.613Z,28.00
2019-03-20T11:38:47.690Z,33.20
2019-03-20T11:41:22.613Z,32.40
2019-03-20T11:43:57.533Z,35.40
2019-03-20T11:46:33.302Z,32.83
2019-03-20T11:49:09.887Z,29.37
2019-03-20T11:51:44.711Z,30.53
2019-03-20T11:54:19.671Z,32.63
2019-03-20T11:56:54.664Z,31.47
2019-03-20T11:59:29.573Z,30.10
2019-03-20T12:02:05.291Z,33.83
2019-03-20T12:04:43.938Z,29.87
2019-03-20T12:07:20.466Z,28.70
2019-03-20T12:09:55.725Z,30.80
2019-03-20T12:12:30.755Z,33.73
2019-03-20T12:15:09.063Z,33.03
2019-03-20T12:17:44.255Z,33.07
2019-03-20T12:20:20.537Z,36.77
2019-03-20T12:22:55.869Z,32.20
2019-03-20T12:25:31.278Z,30.60
2019-03-20T12:28:06.295Z,30.33
2019-03-20T12:30:41.657Z,33.07
2019-03-20T12:33:16.635Z,36.57
2019-03-20T12:35:51.625Z,34.37
2019-03-20T12:38:26.575Z,34.43
2019-03-20T12:41:02.913Z,36.10
2019-03-20T12:43:37.904Z,32.53
2019-03-20T12:46:12.907Z,28.93
2019-03-20T12:48:47.887Z,32.60
2019-03-20T12:51:22.875Z,33.93
2019-03-20T12:53:57.861Z,31.53
2019-03-20T12:56:32.870Z,32.73
2019-03-20T12:59:07.957Z,32.20
2019-03-20T13:01:42.927Z,31.20
2019-03-20T13:04:17.831Z,32.60
2019-03-20T13:06:52.861Z,34.83
2019-03-20T13:09:27.871Z,31.50
2019-03-20T13:12:02.935Z,33.93
2019-03-20T13:14:37.983Z,32.73
2019-03-20T13:17:13.311Z,31.93
2019-03-20T13:19:49.185Z,32.70
2019-03-20T13:22:24.133Z,33.87
2019-03-20T13:24:59.063Z,33.30
2019-03-20T13:27:35.053Z,32.10
2019-03-20T13:30:20.095Z,34.27
2019-03-20T13:32:54.278Z,33.20
2019-03-20T13:35:29.287Z,30.43
2019-03-20T13:38:04.512Z,34.50
2019-03-20T13:40:39.644Z,32.63
2019-03-20T13:43:14.527Z,35.00
2019-03-20T13:45:50.696Z,35.80
2019-03-20T13:48:25.750Z,32.30
2019-03-20T13:51:00.674Z,35.63
2019-03-20T13:53:35.673Z,35.73
2019-03-20T13:56:10.703Z,31.37
2019-03-20T13:58:45.752Z,32.70
2019-03-20T14:01:20.669Z,30.43
2019-03-20T14:03:55.611Z,34.73
2019-03-20T14:06:30.519Z,32.83
2019-03-20T14:09:07.795Z,32.83
2019-03-20T14:11:42.768Z,32.87
2019-03-20T14:14:17.683Z,35.90
2019-03-20T14:16:52.777Z,33.67
2019-03-20T14:19:27.699Z,33.93
2019-03-20T14:22:06.095Z,38.53
2019-03-20T14:24:41.016Z,35.87
2019-03-20T14:27:15.955Z,35.97
2019-03-20T14:29:50.867Z,35.53
2019-03-20T14:32:25.814Z,36.97
2019-03-20T14:35:00.791Z,37.67
2019-03-20T14:37:35.698Z,38.20
2019-03-20T14:40:11.649Z,39.20
2019-03-20T14:42:46.710Z,37.53
2019-03-20T14:45:21.765Z,36.73
2019-03-20T14:47:56.883Z,36.40
2019-03-20T14:50:32.653Z,40.07
2019-03-20T14:53:07.796Z,37.17
2019-03-20T14:55:42.756Z,41.97
2019-03-20T14:58:18.969Z,41.97
2019-03-20T15:00:53.906Z,38.40
2019-03-20T15:03:29.222Z,40.17
2019-03-20T15:06:05.335Z,47.20
2019-03-20T15:08:40.739Z,43.60
2019-03-20T15:11:15.615Z,40.57
2019-03-20T15:13:50.675Z,41.60
2019-03-20T15:16:25.611Z,41.87
2019-03-20T15:19:01.482Z,39.27
2019-03-20T15:21:36.515Z,39.07
2019-03-20T15:24:11.500Z,37.70
2019-03-20T15:26:46.433Z,42.30
2019-03-20T15:29:21.492Z,40.77
2019-03-20T15:31:56.481Z,44.53
2019-03-20T15:34:31.379Z,39.47
2019-03-20T15:37:08.529Z,39.33
2019-03-20T15:39:43.474Z,35.00
2019-03-20T15:42:18.524Z,38.23
2019-03-20T15:44:53.532Z,45.43
2019-03-20T15:47:29.342Z,33.80
2019-03-20T15:50:04.538Z,38.60
2019-03-20T15:52:39.564Z,38.87
2019-03-20T15:55:18.428Z,41.90
2019-03-20T15:57:53.413Z,39.33
2019-03-20T16:00:28.451Z,38.67
2019-03-20T16:03:10.724Z,37.30
2019-03-20T16:05:46.893Z,37.53
2019-03-20T16:08:22.212Z,43.03
2019-03-20T16:11:06.194Z,41.97
2019-03-20T16:13:35.110Z,35.73
2019-03-20T16:16:10.979Z,37.63
2019-03-20T16:18:45.918Z,37.37
2019-03-20T16:21:20.887Z,39.47
2019-03-20T16:23:57.074Z,42.43
2019-03-20T16:26:31.952Z,44.53
2019-03-20T16:29:07.856Z,40.50
2019-03-20T16:31:42.824Z,39.03
2019-03-20T16:34:17.749Z,43.60
2019-03-20T16:36:52.688Z,39.67
2019-03-20T16:39:27.734Z,39.30
2019-03-20T16:42:03.524Z,41.80
2019-03-20T16:44:38.368Z,43.53
2019-03-20T16:47:13.440Z,42.20
2019-03-20T16:49:48.382Z,43.60
2019-03-20T16:52:23.433Z,45.70
2019-03-20T16:54:59.210Z,39.50
2019-03-20T16:57:34.256Z,46.60
2019-03-20T17:00:13.522Z,51.53
2019-03-20T17:02:48.478Z,39.47
2019-03-20T17:05:23.506Z,55.73
2019-03-20T17:07:58.636Z,45.67
2019-03-20T17:10:37.058Z,51.63
2019-03-20T17:13:12.028Z,45.37
2019-03-20T17:15:47.201Z,44.80
2019-03-20T17:18:22.090Z,53.53
2019-03-20T17:20:57.997Z,48.57
2019-03-20T17:23:33.188Z,53.63
2019-03-20T17:26:08.142Z,48.67
2019-03-20T17:28:43.088Z,48.33
2019-03-20T17:31:18.036Z,47.97
2019-03-20T17:34:00.022Z,49.73
2019-03-20T17:36:35.005Z,50.50
2019-03-20T17:39:11.118Z,49.30
2019-03-20T17:41:46.260Z,47.43
2019-03-20T17:44:21.395Z,45.97
2019-03-20T17:46:56.306Z,54.60
2019-03-20T17:49:31.720Z,63.03
2019-03-20T17:52:08.074Z,55.20
2019-03-20T17:54:43.314Z,56.53
2019-03-20T17:57:18.334Z,44.13
2019-03-20T17:59:53.424Z,52.03
2019-03-20T18:02:28.442Z,50.83
2019-03-20T18:05:06.536Z,49.27
2019-03-20T18:07:43.811Z,57.43
2019-03-20T18:10:18.879Z,56.00
2019-03-20T18:12:53.970Z,47.40
2019-03-20T18:15:28.946Z,48.80
2019-03-20T18:18:03.848Z,52.43
2019-03-20T18:20:39.126Z,44.20
2019-03-20T18:23:14.522Z,52.90
2019-03-20T18:25:49.594Z,47.67
2019-03-20T18:28:24.510Z,47.37
2019-03-20T18:31:01.979Z,45.20
2019-03-20T18:33:36.926Z,63.57
2019-03-20T18:36:11.823Z,52.17
2019-03-20T18:38:48.259Z,52.53
2019-03-20T18:41:24.133Z,51.00
2019-03-20T18:43:59.737Z,44.27
2019-03-20T18:46:34.800Z,61.40
2019-03-20T18:49:09.790Z,49.37
2019-03-20T18:51:44.696Z,56.33
2019-03-20T18:54:19.634Z,55.50
2019-03-20T18:56:55.558Z,54.87
2019-03-20T18:59:30.513Z,50.80
2019-03-20T19:02:05.463Z,56.80
2019-03-20T19:04:40.504Z,57.60
2019-03-20T19:07:15.492Z,63.30
2019-03-20T19:09:50.539Z,51.07
2019-03-20T19:12:25.538Z,53.67
2019-03-20T19:15:00.512Z,55.70
2019-03-20T19:17:36.322Z,56.23
2019-03-20T19:20:20.004Z,47.73
2019-03-20T19:22:55.006Z,61.63
2019-03-20T19:25:29.995Z,55.97
2019-03-20T19:28:07.080Z,56.67
2019-03-20T19:30:42.004Z,56.30
2019-03-20T19:33:17.624Z,53.60
2019-03-20T19:35:56.088Z,58.37
2019-03-20T19:38:35.193Z,50.50
2019-03-20T19:41:08.976Z,46.63
2019-03-20T19:43:44.290Z,57.67
2019-03-20T19:46:19.279Z,55.20
2019-03-20T19:48:54.210Z,48.10
2019-03-20T19:51:29.181Z,51.80
2019-03-20T19:54:05.063Z,65.83
2019-03-20T19:56:40.016Z,47.87
2019-03-20T19:59:14.988Z,53.20
2019-03-20T20:01:49.950Z,60.13
2019-03-20T20:04:24.904Z,54.97
2019-03-20T20:06:59.916Z,67.13
2019-03-20T20:09:34.922Z,55.27
2019-03-20T20:12:10.106Z,53.27
2019-03-20T20:14:45.170Z,61.97
2019-03-20T20:17:20.138Z,55.27
2019-03-20T20:19:55.062Z,55.07
2019-03-20T20:22:30.917Z,53.20
2019-03-20T20:25:07.409Z,52.23
2019-03-20T20:27:42.587Z,58.73
2019-03-20T20:30:18.566Z,51.20
2019-03-20T20:32:53.539Z,50.10
2019-03-20T20:35:28.469Z,58.67
2019-03-20T20:38:05.964Z,50.43
2019-03-20T20:40:40.883Z,58.07
2019-03-20T20:43:15.873Z,51.23
2019-03-20T20:45:50.794Z,53.40
2019-03-20T20:48:27.819Z,60.30
2019-03-20T20:51:02.763Z,62.80
2019-03-20T20:53:37.631Z,56.10
2019-03-20T20:56:12.581Z,54.43
2019-03-20T20:58:47.558Z,57.90
2019-03-20T21:01:22.516Z,55.50
2019-03-20T21:03:57.457Z,64.23
2019-03-20T21:06:34.845Z,56.20
2019-03-20T21:09:12.213Z,64.17
2019-03-20T21:11:49.401Z,66.40
2019-03-20T21:14:24.518Z,57.87
2019-03-20T21:17:00.347Z,52.80
2019-03-20T21:19:40.542Z,61.00
2019-03-20T21:23:29.115Z,58.03
2019-03-20T21:26:04.847Z,51.33
2019-03-20T21:29:47.801Z,56.80
2019-03-20T21:32:37.509Z,49.63
2019-03-20T21:36:14.218Z,52.00
2019-03-20T21:38:51.458Z,49.93
2019-03-20T21:43:07.388Z,48.27
2019-03-20T21:46:41.446Z,49.57
2019-03-20T21:49:17.200Z,41.47
2019-03-20T21:51:53.001Z,51.83
2019-03-20T21:55:40.066Z,56.47
2019-03-20T21:58:25.935Z,55.00
2019-03-20T22:01:44.749Z,57.20
2019-03-20T22:04:20.535Z,52.33
2019-03-20T22:07:23.995Z,52.63
2019-03-20T22:11:12.659Z,52.20
2019-03-20T22:14:00.151Z,43.37
2019-03-20T22:17:49.890Z,61.27
2019-03-20T22:20:45.754Z,56.17
2019-03-20T22:24:05.690Z,57.77
2019-03-20T22:27:43.889Z,46.80
2019-03-20T22:30:19.939Z,62.17
2019-03-20T22:33:47.883Z,58.23
2019-03-20T22:36:34.305Z,52.70
2019-03-20T22:40:07.817Z,60.37
2019-03-20T22:43:29.735Z,56.90
2019-03-20T22:47:05.321Z,54.13
2019-03-20T22:50:10.953Z,45.80
2019-03-20T22:53:30.781Z,55.67
2019-03-20T22:57:06.910Z,60.73
2019-03-20T22:59:42.681Z,54.20
2019-03-20T23:02:55.071Z,57.47
2019-03-20T23:05:30.862Z,52.00
2019-03-20T23:08:13.466Z,49.20
2019-03-20T23:10:51.423Z,55.80
2019-03-20T23:13:27.147Z,60.57
2019-03-20T23:16:04.055Z,55.67
2019-03-20T23:18:39.952Z,55.17
2019-03-20T23:21:15.585Z,54.90
2019-03-20T23:23:51.387Z,54.40
2019-03-20T23:26:27.194Z,55.03
2019-03-20T23:29:04.358Z,64.00
2019-03-20T23:31:40.238Z,56.47
2019-03-20T23:34:15.951Z,49.70
2019-03-20T23:36:51.704Z,63.67
2019-03-20T23:39:27.422Z,57.03
2019-03-20T23:42:03.330Z,57.33
2019-03-20T23:44:39.272Z,50.23
2019-03-20T23:47:20.021Z,55.70
2019-03-20T23:49:55.767Z,65.80
2019-03-20T23:52:31.437Z,58.77
2019-03-20T23:55:10.439Z,66.27
2019-03-20T23:57:46.136Z,64.17
